createdAt,value
2023-04-03T00:02:02.217Z,102947.00
2023-04-03T00:04:28.941Z,102948.00
2023-04-03T00:06:55.691Z,102947.00
2023-04-03T00:09:22.328Z,102949.00
2023-04-03T00:11:49.056Z,102951.00
2023-04-03T00:14:15.768Z,102946.00
2023-04-03T00:16:42.461Z,102942.00
2023-04-03T00:19:09.315Z,102949.00
2023-04-03T00:21:36.784Z,102955.00
2023-04-03T00:24:03.731Z,102951.00
2023-04-03T00:26:30.492Z,102951.00
2023-04-03T00:28:57.300Z,102959.00
2023-04-03T00:31:24.011Z,102958.00
2023-04-03T00:33:50.744Z,102961.00
2023-04-03T00:36:17.436Z,102953.00
2023-04-03T00:38:44.195Z,102957.00
2023-04-03T00:41:10.764Z,102968.00
2023-04-03T00:43:37.500Z,102961.00
2023-04-03T00:46:04.669Z,102959.00
2023-04-03T00:48:42.373Z,102965.00
2023-04-03T00:51:14.965Z,102962.00
2023-04-03T00:53:47.572Z,102966.00
2023-04-03T00:56:18.235Z,102968.00
2023-04-03T00:59:16.108Z,102970.00
2023-04-03T01:01:43.788Z,102970.00
2023-04-03T01:04:46.863Z,102976.00
2023-04-03T01:07:19.353Z,102968.00
2023-04-03T01:09:48.083Z,102963.00
2023-04-03T01:12:18.765Z,102964.00
2023-04-03T01:14:47.392Z,102976.00
2023-04-03T01:17:34.494Z,102976.00
2023-04-03T01:20:18.862Z,102972.00
2023-04-03T01:22:59.986Z,102977.00
2023-04-03T01:25:27.331Z,102965.00
2023-04-03T01:27:53.951Z,102963.00
2023-04-03T01:30:24.757Z,102965.00
2023-04-03T01:32:51.506Z,102964.00
2023-04-03T01:35:18.110Z,102972.00
2023-04-03T01:37:44.717Z,102968.00
2023-04-03T01:40:11.731Z,102971.00
2023-04-03T01:42:38.364Z,102975.00
2023-04-03T01:45:05.481Z,102969.00
2023-04-03T01:47:32.250Z,102976.00
2023-04-03T01:49:58.824Z,102984.00
2023-04-03T01:52:25.526Z,102974.00
2023-04-03T01:54:52.224Z,102975.00
2023-04-03T01:57:18.941Z,102971.00
2023-04-03T01:59:45.649Z,102973.00
2023-04-03T02:02:13.477Z,102974.00
2023-04-03T02:04:40.072Z,102976.00
2023-04-03T02:07:06.654Z,102971.00
2023-04-03T02:09:33.278Z,102979.00
2023-04-03T02:11:59.938Z,102981.00
2023-04-03T02:14:28.565Z,102984.00
2023-04-03T02:16:55.543Z,102986.00
2023-04-03T02:19:22.181Z,102983.00
2023-04-03T02:21:48.764Z,102988.00
2023-04-03T02:24:15.462Z,102993.00
2023-04-03T02:26:42.083Z,102995.00
2023-04-03T02:29:08.656Z,102999.00
2023-04-03T02:31:35.336Z,102994.00
2023-04-03T02:34:01.968Z,102991.00
2023-04-03T02:36:28.775Z,102985.00
2023-04-03T02:38:56.437Z,102989.00
2023-04-03T02:41:23.059Z,102993.00
2023-04-03T02:43:49.709Z,102992.00
2023-04-03T02:46:16.789Z,102989.00
2023-04-03T02:48:43.527Z,102997.00
2023-04-03T02:51:10.130Z,102997.00
2023-04-03T02:53:36.708Z,102997.00
2023-04-03T02:56:03.387Z,102996.00
2023-04-03T02:58:29.961Z,102997.00
2023-04-03T03:00:56.570Z,102996.00
2023-04-03T03:03:23.242Z,102998.00
2023-04-03T03:05:49.899Z,102999.00
2023-04-03T03:08:16.603Z,102993.00
2023-04-03T03:10:43.242Z,102989.00
2023-04-03T03:13:09.854Z,102997.00
2023-04-03T03:15:36.429Z,102988.00
2023-04-03T03:18:03.340Z,102992.00
2023-04-03T03:20:29.954Z,102986.00
2023-04-03T03:22:56.569Z,102992.00
2023-04-03T03:25:23.492Z,102998.00
2023-04-03T03:27:50.118Z,103006.00
2023-04-03T03:30:16.698Z,103006.00
2023-04-03T03:32:43.353Z,103000.00
2023-04-03T03:35:10.156Z,103009.00
2023-04-03T03:37:36.877Z,103009.00
2023-04-03T03:40:03.671Z,103014.00
2023-04-03T03:42:30.572Z,103008.00
2023-04-03T03:44:57.215Z,103006.00
2023-04-03T03:47:23.979Z,103017.00
2023-04-03T03:49:51.034Z,103020.00
2023-04-03T03:52:17.664Z,103009.00
2023-04-03T03:54:44.339Z,103003.00
2023-04-03T03:57:11.049Z,103012.00
2023-04-03T03:59:37.748Z,103012.00
2023-04-03T04:02:04.706Z,103012.00
2023-04-03T04:04:31.494Z,103004.00
2023-04-03T04:06:58.197Z,102996.00
2023-04-03T04:09:24.908Z,103007.00
2023-04-03T04:11:51.507Z,102998.00
2023-04-03T04:14:18.202Z,103003.00
2023-04-03T04:16:44.824Z,103005.00
2023-04-03T04:19:11.468Z,103000.00
2023-04-03T04:21:38.223Z,102999.00
2023-04-03T04:24:05.163Z,102996.00
2023-04-03T04:26:31.899Z,103004.00
2023-04-03T04:28:58.580Z,103003.00
2023-04-03T04:31:25.497Z,102998.00
2023-04-03T04:33:52.208Z,102993.00
2023-04-03T04:36:18.903Z,103003.00
2023-04-03T04:38:45.999Z,103000.00
2023-04-03T04:41:12.850Z,103002.00
2023-04-03T04:43:39.424Z,102998.00
2023-04-03T04:46:08.658Z,103002.00
2023-04-03T04:48:36.064Z,103001.00
2023-04-03T04:51:02.964Z,103000.00
2023-04-03T04:53:29.682Z,103004.00
2023-04-03T04:55:56.424Z,103005.00
2023-04-03T04:58:23.079Z,103003.00
2023-04-03T05:00:49.656Z,103008.00
2023-04-03T05:03:16.635Z,103015.00
2023-04-03T05:05:43.231Z,103016.00
2023-04-03T05:08:10.068Z,103016.00
2023-04-03T05:10:36.652Z,103018.00
2023-04-03T05:13:06.027Z,103020.00
2023-04-03T05:15:32.780Z,103012.00
2023-04-03T05:17:59.444Z,103020.00
2023-04-03T05:20:26.397Z,103017.00
2023-04-03T05:22:53.106Z,103019.00
2023-04-03T05:25:19.739Z,103023.00
2023-04-03T05:27:46.444Z,103025.00
2023-04-03T05:30:13.449Z,103025.00
2023-04-03T05:32:40.120Z,103036.00
2023-04-03T05:35:08.385Z,103031.00
2023-04-03T05:37:35.638Z,103037.00
2023-04-03T05:40:03.214Z,103031.00
2023-04-03T05:42:29.879Z,103043.00
2023-04-03T05:44:56.714Z,103032.00
2023-04-03T05:47:23.407Z,103047.00
2023-04-03T05:49:50.364Z,103049.00
2023-04-03T05:52:29.940Z,103054.00
2023-04-03T05:54:57.406Z,103060.00
2023-04-03T05:57:24.629Z,103060.00
2023-04-03T05:59:51.317Z,103050.00
2023-04-03T06:02:21.127Z,103054.00
2023-04-03T06:04:48.917Z,103053.00
2023-04-03T06:07:18.722Z,103055.00
2023-04-03T06:09:45.449Z,103048.00
2023-04-03T06:12:12.393Z,103056.00
2023-04-03T06:14:39.016Z,103051.00
2023-04-03T06:17:07.192Z,103049.00
2023-04-03T06:19:34.265Z,103056.00
2023-04-03T06:22:01.244Z,103054.00
2023-04-03T06:24:28.216Z,103047.00
2023-04-03T06:26:54.929Z,103048.00
2023-04-03T06:29:21.738Z,103052.00
2023-04-03T06:31:49.024Z,103058.00
2023-04-03T06:34:16.855Z,103058.00
2023-04-03T06:36:44.158Z,103064.00
2023-04-03T06:39:15.532Z,103065.00
2023-04-03T06:41:42.203Z,103070.00
2023-04-03T06:44:11.949Z,103066.00
2023-04-03T06:46:39.762Z,103069.00
2023-04-03T06:49:08.787Z,103065.00
2023-04-03T06:51:36.255Z,103069.00
2023-04-03T06:54:04.278Z,103069.00
2023-04-03T06:56:31.142Z,103071.00
2023-04-03T06:58:58.757Z,103074.00
2023-04-03T07:01:28.905Z,103079.00
2023-04-03T07:03:56.478Z,103070.00
2023-04-03T07:06:23.567Z,103067.00
2023-04-03T07:08:50.393Z,103075.00
2023-04-03T07:11:17.988Z,103080.00
2023-04-03T07:13:44.735Z,103079.00
2023-04-03T07:16:12.108Z,103082.00
2023-04-03T07:18:38.745Z,103084.00
2023-04-03T07:21:05.546Z,103085.00
2023-04-03T07:23:32.343Z,103072.00
2023-04-03T07:25:59.013Z,103080.00
2023-04-03T07:28:26.888Z,103076.00
2023-04-03T07:30:59.968Z,103073.00
2023-04-03T07:33:27.223Z,103072.00
2023-04-03T07:35:53.987Z,103082.00
2023-04-03T07:38:20.728Z,103081.00
2023-04-03T07:40:49.100Z,103076.00
2023-04-03T07:43:17.133Z,103074.00
2023-04-03T07:45:44.394Z,103079.00
2023-04-03T07:48:12.595Z,103074.00
2023-04-03T07:50:41.647Z,103080.00
2023-04-03T07:53:08.875Z,103078.00
2023-04-03T07:55:38.532Z,103086.00
2023-04-03T07:58:05.867Z,103079.00
2023-04-03T08:00:32.747Z,103083.00
2023-04-03T08:02:59.444Z,103087.00
2023-04-03T08:05:26.428Z,103083.00
2023-04-03T08:07:53.122Z,103084.00
2023-04-03T08:10:19.848Z,103078.00
2023-04-03T08:12:49.985Z,103083.00
2023-04-03T08:15:17.285Z,103083.00
2023-04-03T08:17:43.852Z,103087.00
2023-04-03T08:20:11.488Z,103099.00
2023-04-03T08:22:38.212Z,103088.00
2023-04-03T08:25:05.246Z,103102.00
2023-04-03T08:27:32.588Z,103100.00
2023-04-03T08:29:59.392Z,103093.00
2023-04-03T08:32:26.694Z,103097.00
2023-04-03T08:34:54.039Z,103100.00
2023-04-03T08:37:20.806Z,103103.00
2023-04-03T08:39:48.805Z,103099.00
2023-04-03T08:42:35.146Z,103095.00
2023-04-03T08:45:11.384Z,103099.00
2023-04-03T08:47:41.824Z,103096.00
2023-04-03T08:50:16.558Z,103091.00
2023-04-03T08:52:48.857Z,103088.00
2023-04-03T08:55:44.754Z,103084.00
2023-04-03T08:58:20.363Z,103090.00
2023-04-03T09:01:19.964Z,103086.00
2023-04-03T09:03:46.762Z,103095.00
2023-04-03T09:06:25.231Z,103094.00
2023-04-03T09:08:54.779Z,103098.00
2023-04-03T09:11:40.047Z,103097.00
2023-04-03T09:14:39.174Z,103094.00
2023-04-03T09:17:15.899Z,103089.00
2023-04-03T09:20:13.229Z,103090.00
2023-04-03T09:22:49.702Z,103092.00
2023-04-03T09:25:23.030Z,103092.00
2023-04-03T09:27:50.679Z,103092.00
2023-04-03T09:30:20.582Z,103099.00
2023-04-03T09:32:50.049Z,103088.00
2023-04-03T09:35:40.609Z,103097.00
2023-04-03T09:38:14.282Z,103098.00
2023-04-03T09:40:44.923Z,103094.00
2023-04-03T09:43:32.044Z,103101.00
2023-04-03T09:46:25.967Z,103092.00
2023-04-03T09:49:07.558Z,103094.00
2023-04-03T09:51:36.071Z,103099.00
2023-04-03T09:54:26.449Z,103095.00
2023-04-03T09:56:55.072Z,103091.00
2023-04-03T09:59:22.355Z,103090.00
2023-04-03T10:02:22.038Z,103087.00
2023-04-03T10:04:53.075Z,103080.00
2023-04-03T10:07:31.253Z,103084.00
2023-04-03T10:10:04.730Z,103080.00
2023-04-03T10:12:31.645Z,103087.00
2023-04-03T10:15:01.585Z,103084.00
2023-04-03T10:17:35.827Z,103080.00
2023-04-03T10:20:17.438Z,103080.00
2023-04-03T10:23:05.389Z,103078.00
2023-04-03T10:25:41.099Z,103067.00
2023-04-03T10:28:21.651Z,103073.00
2023-04-03T10:31:13.274Z,103070.00
2023-04-03T10:34:01.339Z,103064.00
2023-04-03T10:36:43.815Z,103068.00
2023-04-03T10:39:47.505Z,103059.00
2023-04-03T10:42:34.771Z,103058.00
2023-04-03T10:45:19.987Z,103052.00
2023-04-03T10:48:07.932Z,103045.00
2023-04-03T10:51:20.841Z,103046.00
2023-04-03T10:54:01.727Z,103034.00
2023-04-03T10:56:39.304Z,103032.00
2023-04-03T10:59:34.540Z,103037.00
2023-04-03T11:02:08.602Z,103040.00
2023-04-03T11:04:41.634Z,103022.00
2023-04-03T11:07:18.618Z,103026.00
2023-04-03T11:09:47.930Z,103034.00
2023-04-03T11:12:22.059Z,103025.00
2023-04-03T11:14:51.478Z,103031.00
2023-04-03T11:17:23.960Z,103027.00
2023-04-03T11:20:15.277Z,103026.00
2023-04-03T11:22:50.314Z,103020.00
2023-04-03T11:25:24.069Z,103013.00
2023-04-03T11:28:05.420Z,103009.00
2023-04-03T11:30:45.811Z,103016.00
2023-04-03T11:33:30.867Z,103010.00
2023-04-03T11:36:19.011Z,103005.00
2023-04-03T11:38:56.234Z,102992.00
2023-04-03T11:41:31.594Z,102998.00
2023-04-03T11:44:05.686Z,102992.00
2023-04-03T11:46:53.703Z,102994.00
2023-04-03T11:50:02.174Z,102985.00
2023-04-03T11:52:43.768Z,102984.00
2023-04-03T11:55:23.052Z,102988.00
2023-04-03T11:57:58.715Z,102986.00
2023-04-03T12:00:54.993Z,102982.00
2023-04-03T12:03:25.054Z,102974.00
2023-04-03T12:06:08.120Z,102986.00
2023-04-03T12:08:35.189Z,102987.00
2023-04-03T12:11:11.395Z,102980.00
2023-04-03T12:13:39.611Z,102980.00
2023-04-03T12:16:08.298Z,102977.00
2023-04-03T12:18:44.013Z,102975.00
2023-04-03T12:21:13.553Z,102967.00
2023-04-03T12:23:58.539Z,102966.00
2023-04-03T12:26:35.409Z,102969.00
2023-04-03T12:29:21.497Z,102951.00
2023-04-03T12:32:07.204Z,102967.00
2023-04-03T12:34:58.775Z,102969.00
2023-04-03T12:37:47.166Z,102962.00
2023-04-03T12:40:40.368Z,102962.00
2023-04-03T12:43:24.610Z,102958.00
2023-04-03T12:46:09.684Z,102952.00
2023-04-03T12:48:45.456Z,102958.00
2023-04-03T12:51:27.444Z,102957.00
2023-04-03T12:54:01.273Z,102952.00
2023-04-03T12:56:33.833Z,102952.00
2023-04-03T12:59:27.760Z,102957.00
2023-04-03T13:02:01.940Z,102940.00
2023-04-03T13:04:31.322Z,102940.00
2023-04-03T13:06:58.475Z,102936.00
2023-04-03T13:09:28.839Z,102935.00
2023-04-03T13:12:02.397Z,102930.00
2023-04-03T13:14:32.998Z,102935.00
2023-04-03T13:17:07.953Z,102922.00
2023-04-03T13:19:34.530Z,102926.00
2023-04-03T13:22:08.426Z,102922.00
2023-04-03T13:24:38.759Z,102926.00
2023-04-03T13:27:08.028Z,102920.00
2023-04-03T13:29:37.885Z,102926.00
2023-04-03T13:32:06.248Z,102924.00
2023-04-03T13:34:46.565Z,102931.00
2023-04-03T13:37:26.258Z,102916.00
2023-04-03T13:39:59.228Z,102915.00
2023-04-03T13:42:31.346Z,102916.00
2023-04-03T13:45:15.880Z,102914.00
2023-04-03T13:47:45.003Z,102920.00
2023-04-03T13:50:21.941Z,102912.00
2023-04-03T13:52:53.875Z,102909.00
2023-04-03T13:55:28.735Z,102916.00
2023-04-03T13:58:01.385Z,102917.00
2023-04-03T14:00:55.733Z,102912.00
2023-04-03T14:03:27.124Z,102913.00
2023-04-03T14:05:55.508Z,102905.00
2023-04-03T14:08:29.450Z,102906.00
2023-04-03T14:11:02.923Z,102907.00
2023-04-03T14:13:33.477Z,102905.00
2023-04-03T14:16:12.920Z,102906.00
2023-04-03T14:18:42.556Z,102897.00
2023-04-03T14:21:13.164Z,102901.00
2023-04-03T14:23:40.169Z,102898.00
2023-04-03T14:26:18.968Z,102900.00
2023-04-03T14:28:47.926Z,102899.00
2023-04-03T14:31:16.877Z,102889.00
2023-04-03T14:33:43.568Z,102890.00
2023-04-03T14:36:17.615Z,102881.00
2023-04-03T14:38:45.692Z,102880.00
2023-04-03T14:41:18.175Z,102869.00
2023-04-03T14:43:46.703Z,102879.00
2023-04-03T14:46:19.552Z,102871.00
2023-04-03T14:48:46.784Z,102860.00
2023-04-03T14:51:14.885Z,102861.00
2023-04-03T14:53:44.628Z,102859.00
2023-04-03T14:56:19.022Z,102859.00
2023-04-03T14:58:50.347Z,102856.00
2023-04-03T15:01:21.652Z,102849.00
2023-04-03T15:03:57.449Z,102860.00
2023-04-03T15:06:26.651Z,102866.00
2023-04-03T15:08:53.681Z,102862.00
2023-04-03T15:11:21.219Z,102860.00
2023-04-03T15:13:48.417Z,102862.00
2023-04-03T15:16:23.121Z,102859.00
2023-04-03T15:18:50.158Z,102847.00
2023-04-03T15:21:17.673Z,102854.00
2023-04-03T15:23:53.187Z,102859.00
2023-04-03T15:26:19.922Z,102851.00
2023-04-03T15:28:46.648Z,102848.00
2023-04-03T15:31:13.482Z,102846.00
2023-04-03T15:33:40.541Z,102852.00
2023-04-03T15:36:16.778Z,102849.00
2023-04-03T15:38:56.630Z,102846.00
2023-04-03T15:41:23.482Z,102845.00
2023-04-03T15:43:50.075Z,102845.00
2023-04-03T15:46:17.071Z,102849.00
2023-04-03T15:48:43.939Z,102853.00
2023-04-03T15:51:10.840Z,102855.00
2023-04-03T15:53:44.377Z,102857.00
2023-04-03T15:56:12.888Z,102860.00
2023-04-03T15:58:39.526Z,102866.00
2023-04-03T16:01:08.122Z,102861.00
2023-04-03T16:03:35.190Z,102862.00
2023-04-03T16:06:02.694Z,102860.00
2023-04-03T16:08:29.397Z,102865.00
2023-04-03T16:10:56.170Z,102864.00
2023-04-03T16:13:22.858Z,102871.00
2023-04-03T16:15:50.356Z,102853.00
2023-04-03T16:18:18.766Z,102852.00
2023-04-03T16:20:46.666Z,102853.00
2023-04-03T16:23:13.435Z,102856.00
2023-04-03T16:25:40.804Z,102856.00
2023-04-03T16:28:07.619Z,102852.00
2023-04-03T16:30:34.368Z,102842.00
2023-04-03T16:33:01.049Z,102836.00
2023-04-03T16:35:28.311Z,102841.00
2023-04-03T16:37:54.921Z,102836.00
2023-04-03T16:40:21.589Z,102839.00
2023-04-03T16:42:48.235Z,102838.00
2023-04-03T16:45:15.053Z,102839.00
2023-04-03T16:47:41.846Z,102833.00
2023-04-03T16:50:09.378Z,102840.00
2023-04-03T16:52:36.208Z,102836.00
2023-04-03T16:55:03.370Z,102840.00
2023-04-03T16:57:30.010Z,102839.00
2023-04-03T16:59:56.768Z,102830.00
2023-04-03T17:02:27.852Z,102838.00
2023-04-03T17:04:54.951Z,102835.00
2023-04-03T17:07:22.940Z,102839.00
2023-04-03T17:09:49.906Z,102836.00
2023-04-03T17:12:17.118Z,102845.00
2023-04-03T17:14:44.034Z,102844.00
2023-04-03T17:17:11.063Z,102844.00
2023-04-03T17:19:38.902Z,102844.00
2023-04-03T17:22:05.707Z,102845.00
2023-04-03T17:24:32.321Z,102845.00
2023-04-03T17:26:58.954Z,102854.00
2023-04-03T17:29:25.704Z,102849.00
2023-04-03T17:31:52.328Z,102847.00
2023-04-03T17:34:19.049Z,102853.00
2023-04-03T17:36:45.752Z,102849.00
2023-04-03T17:39:12.660Z,102847.00
2023-04-03T17:41:39.500Z,102847.00
2023-04-03T17:44:06.663Z,102848.00
2023-04-03T17:46:35.223Z,102836.00
2023-04-03T17:49:03.355Z,102843.00
2023-04-03T17:51:30.411Z,102841.00
2023-04-03T17:53:57.052Z,102845.00
2023-04-03T17:56:27.159Z,102847.00
2023-04-03T17:58:55.722Z,102841.00
2023-04-03T18:01:24.041Z,102853.00
2023-04-03T18:03:53.440Z,102845.00
2023-04-03T18:06:22.128Z,102851.00
2023-04-03T18:08:51.238Z,102849.00
2023-04-03T18:11:18.890Z,102851.00
2023-04-03T18:13:46.358Z,102849.00
2023-04-03T18:16:14.219Z,102847.00
2023-04-03T18:18:41.296Z,102848.00
2023-04-03T18:21:13.857Z,102842.00
2023-04-03T18:23:45.002Z,102846.00
2023-04-03T18:26:16.540Z,102841.00
2023-04-03T18:28:53.832Z,102841.00
2023-04-03T18:31:21.403Z,102844.00
2023-04-03T18:33:48.034Z,102850.00
2023-04-03T18:38:46.352Z,102849.00
2023-04-03T18:41:13.531Z,102857.00
2023-04-03T18:43:40.438Z,102851.00
2023-04-03T18:46:07.344Z,102860.00
2023-04-03T18:48:35.444Z,102859.00
2023-04-03T18:51:02.386Z,102863.00
2023-04-03T18:53:29.017Z,102857.00
2023-04-03T18:55:55.749Z,102865.00
2023-04-03T18:58:22.465Z,102864.00
2023-04-03T19:00:49.209Z,102870.00
2023-04-03T19:03:16.007Z,102866.00
2023-04-03T19:05:43.144Z,102875.00
2023-04-03T19:08:09.976Z,102865.00
2023-04-03T19:10:37.009Z,102869.00
2023-04-03T19:13:03.716Z,102859.00
2023-04-03T19:15:30.449Z,102861.00
2023-04-03T19:17:57.081Z,102870.00
2023-04-03T19:20:23.915Z,102875.00
2023-04-03T19:22:50.661Z,102875.00
2023-04-03T19:25:17.418Z,102883.00
2023-04-03T19:27:44.314Z,102881.00
2023-04-03T19:30:12.220Z,102885.00
2023-04-03T19:32:38.990Z,102889.00
2023-04-03T19:35:06.320Z,102888.00
2023-04-03T19:37:33.422Z,102888.00
2023-04-03T19:40:00.439Z,102900.00
2023-04-03T19:42:31.377Z,102902.00
2023-04-03T19:44:58.755Z,102899.00
2023-04-03T19:47:26.122Z,102899.00
2023-04-03T19:49:52.772Z,102907.00
2023-04-03T19:52:19.477Z,102912.00
2023-04-03T19:54:46.139Z,102914.00
2023-04-03T19:57:13.188Z,102909.00
2023-04-03T19:59:39.937Z,102902.00
2023-04-03T20:02:07.017Z,102907.00
2023-04-03T20:04:33.896Z,102913.00
2023-04-03T20:07:02.012Z,102914.00
2023-04-03T20:09:28.894Z,102908.00
2023-04-03T20:11:57.954Z,102915.00
2023-04-03T20:14:24.617Z,102909.00
2023-04-03T20:16:51.226Z,102912.00
2023-04-03T20:19:17.897Z,102911.00
2023-04-03T20:21:45.247Z,102910.00
2023-04-03T20:24:13.884Z,102912.00
2023-04-03T20:26:46.221Z,102912.00
2023-04-03T20:29:14.701Z,102906.00
2023-04-03T20:31:42.205Z,102899.00
2023-04-03T20:34:09.449Z,102900.00
2023-04-03T20:36:39.441Z,102900.00
2023-04-03T20:39:06.270Z,102905.00
2023-04-03T20:41:35.540Z,102905.00
2023-04-03T20:44:02.494Z,102907.00
2023-04-03T20:46:42.210Z,102903.00
2023-04-03T20:49:19.318Z,102908.00
2023-04-03T20:51:47.103Z,102907.00
2023-04-03T20:54:14.801Z,102911.00
2023-04-03T20:56:41.752Z,102914.00
2023-04-03T20:59:10.347Z,102912.00
2023-04-03T21:01:37.132Z,102905.00
2023-04-03T21:04:30.451Z,102919.00
2023-04-03T21:07:34.607Z,102919.00
2023-04-03T21:10:38.926Z,102918.00
2023-04-03T21:13:43.112Z,102919.00
2023-04-03T21:16:09.691Z,102929.00
2023-04-03T21:18:39.104Z,102931.00
2023-04-03T21:21:05.937Z,102932.00
2023-04-03T21:23:33.174Z,102934.00
2023-04-03T21:26:00.644Z,102930.00
2023-04-03T21:28:27.480Z,102932.00
2023-04-03T21:30:54.229Z,102930.00
2023-04-03T21:33:21.228Z,102912.00
2023-04-03T21:35:48.041Z,102920.00
2023-04-03T21:38:15.556Z,102917.00
2023-04-03T21:40:46.560Z,102920.00
2023-04-03T21:43:13.589Z,102907.00
2023-04-03T21:45:40.770Z,102906.00
2023-04-03T21:48:10.199Z,102910.00
2023-04-03T21:50:37.253Z,102911.00
2023-04-03T21:53:04.011Z,102907.00
2023-04-03T21:55:30.600Z,102908.00
2023-04-03T21:57:58.175Z,102915.00
2023-04-03T22:00:25.068Z,102913.00
2023-04-03T22:02:57.814Z,102908.00
2023-04-03T22:05:35.955Z,102905.00
2023-04-03T22:08:02.770Z,102911.00
2023-04-03T22:10:29.588Z,102906.00
2023-04-03T22:12:56.279Z,102911.00
2023-04-03T22:15:23.110Z,102919.00
2023-04-03T22:17:49.769Z,102919.00
2023-04-03T22:20:16.893Z,102913.00
2023-04-03T22:22:43.478Z,102913.00
2023-04-03T22:25:10.559Z,102907.00
2023-04-03T22:27:37.412Z,102919.00
2023-04-03T22:30:04.481Z,102911.00
2023-04-03T22:32:31.178Z,102915.00
2023-04-03T22:35:00.210Z,102913.00
2023-04-03T22:37:27.560Z,102924.00
2023-04-03T22:39:54.161Z,102920.00
2023-04-03T22:42:20.724Z,102925.00
2023-04-03T22:44:47.651Z,102920.00
2023-04-03T22:47:14.261Z,102937.00
2023-04-03T22:49:41.237Z,102941.00
2023-04-03T22:52:07.801Z,102948.00
2023-04-03T22:54:34.391Z,102948.00
2023-04-03T22:57:01.010Z,102937.00
2023-04-03T22:59:27.716Z,102939.00
2023-04-03T23:01:54.462Z,102939.00
2023-04-03T23:04:21.108Z,102943.00
2023-04-03T23:06:47.862Z,102939.00
2023-04-03T23:09:14.524Z,102943.00
2023-04-03T23:11:41.316Z,102937.00
2023-04-03T23:14:07.987Z,102932.00
2023-04-03T23:16:34.657Z,102925.00
2023-04-03T23:19:01.407Z,102922.00
2023-04-03T23:21:28.163Z,102917.00
2023-04-03T23:23:54.910Z,102924.00
2023-04-03T23:26:21.468Z,102922.00
2023-04-03T23:28:48.544Z,102920.00
2023-04-03T23:31:15.599Z,102928.00
2023-04-03T23:33:44.007Z,102918.00
2023-04-03T23:36:12.880Z,102922.00
2023-04-03T23:38:39.624Z,102915.00
2023-04-03T23:41:06.641Z,102917.00
2023-04-03T23:43:34.009Z,102912.00
2023-04-03T23:46:00.701Z,102915.00
2023-04-03T23:48:27.345Z,102909.00
2023-04-03T23:50:59.787Z,102904.00
2023-04-03T23:53:26.394Z,102890.00
2023-04-03T23:55:53.119Z,102897.00
2023-04-03T23:58:19.715Z,102890.00
